sensor_id;sensor_type;location;lat;lon;timestamp;temperature;humidity
34095;DHT22;20372;47.080;15.410;2022-12-20T00:00:13;-0.30;99.90
34095;DHT22;20372;47.080;15.410;2022-12-20T00:02:39;-0.30;99.90
34095;DHT22;20372;47.080;15.410;2022-12-20T00:05:05;-0.40;99.90
34095;DHT22;20372;47.080;15.410;2022-12-20T00:07:31;-0.40;99.90
34095;DHT22;20372;47.080;15.410;2022-12-20T00:09:56;-0.30;99.90
34095;DHT22;20372;47.080;15.410;2022-12-20T00:12:22;-0.20;99.90
34095;DHT22;20372;47.080;15.410;2022-12-20T00:14:48;-0.30;99.90
34095;DHT22;20372;47.080;15.410;2022-12-20T00:17:13;-0.30;99.90
34095;DHT22;20372;47.080;15.410;2022-12-20T00:19:39;-0.30;99.90
34095;DHT22;20372;47.080;15.410;2022-12-20T00:22:05;-0.40;99.90
34095;DHT22;20372;47.080;15.410;2022-12-20T00:24:30;-0.40;99.90
34095;DHT22;20372;47.080;15.410;2022-12-20T00:26:57;-0.30;99.90
34095;DHT22;20372;47.080;15.410;2022-12-20T00:29:22;-0.30;99.90
34095;DHT22;20372;47.080;15.410;2022-12-20T00:31:48;-0.40;99.90
34095;DHT22;20372;47.080;15.410;2022-12-20T00:34:13;-0.40;99.90
34095;DHT22;20372;47.080;15.410;2022-12-20T00:36:39;-0.30;99.90
34095;DHT22;20372;47.080;15.410;2022-12-20T00:39:05;-0.30;99.90
34095;DHT22;20372;47.080;15.410;2022-12-20T00:41:32;-0.40;99.90
34095;DHT22;20372;47.080;15.410;2022-12-20T00:43:58;-0.40;99.90
34095;DHT22;20372;47.080;15.410;2022-12-20T00:46:24;-0.40;99.90
34095;DHT22;20372;47.080;15.410;2022-12-20T00:48:50;-0.40;99.90
34095;DHT22;20372;47.080;15.410;2022-12-20T00:51:18;-0.40;99.90
34095;DHT22;20372;47.080;15.410;2022-12-20T00:53:44;-0.40;99.90
34095;DHT22;20372;47.080;15.410;2022-12-20T00:56:10;-0.40;99.90
34095;DHT22;20372;47.080;15.410;2022-12-20T00:58:36;-0.40;99.90
34095;DHT22;20372;47.080;15.410;2022-12-20T01:01:02;-0.40;99.90
34095;DHT22;20372;47.080;15.410;2022-12-20T01:03:29;-0.40;99.90
34095;DHT22;20372;47.080;15.410;2022-12-20T01:05:58;-0.40;99.90
34095;DHT22;20372;47.080;15.410;2022-12-20T01:08:24;-0.30;99.90
34095;DHT22;20372;47.080;15.410;2022-12-20T01:13:27;-0.20;99.90
34095;DHT22;20372;47.080;15.410;2022-12-20T01:15:53;-0.20;99.90
34095;DHT22;20372;47.080;15.410;2022-12-20T01:18:18;-0.20;99.90
34095;DHT22;20372;47.080;15.410;2022-12-20T01:20:44;-0.20;99.90
34095;DHT22;20372;47.080;15.410;2022-12-20T01:23:10;-0.30;99.90
34095;DHT22;20372;47.080;15.410;2022-12-20T01:25:35;-0.30;99.90
34095;DHT22;20372;47.080;15.410;2022-12-20T01:28:01;-0.30;99.90
34095;DHT22;20372;47.080;15.410;2022-12-20T01:30:26;-0.30;99.90
34095;DHT22;20372;47.080;15.410;2022-12-20T01:32:52;-0.30;99.90
34095;DHT22;20372;47.080;15.410;2022-12-20T01:35:17;-0.30;99.90
34095;DHT22;20372;47.080;15.410;2022-12-20T01:37:43;-0.30;99.90
34095;DHT22;20372;47.080;15.410;2022-12-20T01:40:09;-0.30;99.90
34095;DHT22;20372;47.080;15.410;2022-12-20T01:42:35;-0.30;99.90
34095;DHT22;20372;47.080;15.410;2022-12-20T01:45:01;-0.30;99.90
34095;DHT22;20372;47.080;15.410;2022-12-20T01:47:29;-0.20;99.90
34095;DHT22;20372;47.080;15.410;2022-12-20T01:49:56;-0.30;99.90
34095;DHT22;20372;47.080;15.410;2022-12-20T01:52:25;-0.40;99.90
34095;DHT22;20372;47.080;15.410;2022-12-20T01:54:55;-0.30;99.90
34095;DHT22;20372;47.080;15.410;2022-12-20T01:57:35;-0.20;99.90
34095;DHT22;20372;47.080;15.410;2022-12-20T02:00:01;-0.30;99.90
34095;DHT22;20372;47.080;15.410;2022-12-20T02:02:28;-0.20;99.90
34095;DHT22;20372;47.080;15.410;2022-12-20T02:04:54;-0.20;99.90
34095;DHT22;20372;47.080;15.410;2022-12-20T02:07:22;-0.20;99.90
34095;DHT22;20372;47.080;15.410;2022-12-20T02:09:48;-0.20;99.90
34095;DHT22;20372;47.080;15.410;2022-12-20T02:12:14;-0.20;99.90
34095;DHT22;20372;47.080;15.410;2022-12-20T02:17:21;-0.20;99.90
34095;DHT22;20372;47.080;15.410;2022-12-20T02:22:37;-0.20;99.90
34095;DHT22;20372;47.080;15.410;2022-12-20T02:30:36;-0.40;99.90
34095;DHT22;20372;47.080;15.410;2022-12-20T02:33:04;-0.30;99.90
34095;DHT22;20372;47.080;15.410;2022-12-20T02:35:33;-0.40;99.90
34095;DHT22;20372;47.080;15.410;2022-12-20T02:38:00;-0.40;99.90
34095;DHT22;20372;47.080;15.410;2022-12-20T02:40:27;-0.40;99.90
34095;DHT22;20372;47.080;15.410;2022-12-20T02:43:03;-0.40;99.90
34095;DHT22;20372;47.080;15.410;2022-12-20T02:45:50;-0.30;99.90
34095;DHT22;20372;47.080;15.410;2022-12-20T02:48:16;-0.40;99.90
34095;DHT22;20372;47.080;15.410;2022-12-20T02:50:47;-0.40;99.90
34095;DHT22;20372;47.080;15.410;2022-12-20T02:53:14;-0.40;99.90
34095;DHT22;20372;47.080;15.410;2022-12-20T02:55:42;-0.30;99.90
34095;DHT22;20372;47.080;15.410;2022-12-20T02:58:25;-0.30;99.90
34095;DHT22;20372;47.080;15.410;2022-12-20T03:00:54;-0.30;99.90
34095;DHT22;20372;47.080;15.410;2022-12-20T03:03:21;-0.20;99.90
34095;DHT22;20372;47.080;15.410;2022-12-20T03:05:47;-0.30;99.90
34095;DHT22;20372;47.080;15.410;2022-12-20T03:08:13;-0.20;99.90
34095;DHT22;20372;47.080;15.410;2022-12-20T03:10:39;-0.20;99.90
34095;DHT22;20372;47.080;15.410;2022-12-20T03:13:04;-0.20;99.90
34095;DHT22;20372;47.080;15.410;2022-12-20T03:15:30;-0.20;99.90
34095;DHT22;20372;47.080;15.410;2022-12-20T03:17:55;-0.20;99.90
34095;DHT22;20372;47.080;15.410;2022-12-20T03:20:21;-0.40;99.90
34095;DHT22;20372;47.080;15.410;2022-12-20T03:22:46;-0.40;99.90
34095;DHT22;20372;47.080;15.410;2022-12-20T03:25:12;-0.30;99.90
34095;DHT22;20372;47.080;15.410;2022-12-20T03:27:38;-0.20;99.90
34095;DHT22;20372;47.080;15.410;2022-12-20T03:30:04;-0.20;99.90
34095;DHT22;20372;47.080;15.410;2022-12-20T03:32:30;-0.20;99.90
34095;DHT22;20372;47.080;15.410;2022-12-20T03:34:55;-0.20;99.90
34095;DHT22;20372;47.080;15.410;2022-12-20T03:37:21;-0.20;99.90
34095;DHT22;20372;47.080;15.410;2022-12-20T03:39:46;-0.30;99.90
34095;DHT22;20372;47.080;15.410;2022-12-20T03:42:12;-0.30;99.90
34095;DHT22;20372;47.080;15.410;2022-12-20T03:44:38;-0.30;99.90
34095;DHT22;20372;47.080;15.410;2022-12-20T03:47:03;-0.30;99.90
34095;DHT22;20372;47.080;15.410;2022-12-20T03:49:29;-0.40;99.90
34095;DHT22;20372;47.080;15.410;2022-12-20T03:51:54;-0.40;99.90
34095;DHT22;20372;47.080;15.410;2022-12-20T03:54:20;-0.40;99.90
34095;DHT22;20372;47.080;15.410;2022-12-20T03:56:45;-0.50;99.90
34095;DHT22;20372;47.080;15.410;2022-12-20T03:59:11;-0.40;99.90
34095;DHT22;20372;47.080;15.410;2022-12-20T04:01:36;-0.40;99.90
34095;DHT22;20372;47.080;15.410;2022-12-20T04:04:03;-0.50;99.90
34095;DHT22;20372;47.080;15.410;2022-12-20T04:06:28;-0.40;99.90
34095;DHT22;20372;47.080;15.410;2022-12-20T04:08:54;-0.40;99.90
34095;DHT22;20372;47.080;15.410;2022-12-20T04:11:20;-0.30;99.90
34095;DHT22;20372;47.080;15.410;2022-12-20T04:13:46;-0.30;99.90
34095;DHT22;20372;47.080;15.410;2022-12-20T04:16:13;-0.30;99.90
34095;DHT22;20372;47.080;15.410;2022-12-20T04:18:39;-0.20;99.90
34095;DHT22;20372;47.080;15.410;2022-12-20T04:21:05;-0.20;99.90
34095;DHT22;20372;47.080;15.410;2022-12-20T04:23:32;-0.30;99.90
34095;DHT22;20372;47.080;15.410;2022-12-20T04:25:58;-0.30;99.90
34095;DHT22;20372;47.080;15.410;2022-12-20T04:28:24;-0.30;99.90
34095;DHT22;20372;47.080;15.410;2022-12-20T04:30:50;-0.30;99.90
34095;DHT22;20372;47.080;15.410;2022-12-20T04:33:15;-0.30;99.90
34095;DHT22;20372;47.080;15.410;2022-12-20T04:35:41;-0.40;99.90
34095;DHT22;20372;47.080;15.410;2022-12-20T04:38:06;-0.30;99.90
34095;DHT22;20372;47.080;15.410;2022-12-20T04:40:32;-0.40;99.90
34095;DHT22;20372;47.080;15.410;2022-12-20T04:42:57;-0.30;99.90
34095;DHT22;20372;47.080;15.410;2022-12-20T04:45:23;-0.40;99.90
34095;DHT22;20372;47.080;15.410;2022-12-20T04:47:49;-0.30;99.90
34095;DHT22;20372;47.080;15.410;2022-12-20T04:50:14;-0.40;99.90
34095;DHT22;20372;47.080;15.410;2022-12-20T04:52:40;-0.40;99.90
34095;DHT22;20372;47.080;15.410;2022-12-20T04:55:24;-0.40;99.90
34095;DHT22;20372;47.080;15.410;2022-12-20T04:57:50;-0.30;99.90
34095;DHT22;20372;47.080;15.410;2022-12-20T05:00:15;-0.30;99.90
34095;DHT22;20372;47.080;15.410;2022-12-20T05:02:41;-0.30;99.90
34095;DHT22;20372;47.080;15.410;2022-12-20T05:05:07;-0.40;99.90
34095;DHT22;20372;47.080;15.410;2022-12-20T05:07:32;-0.40;99.90
34095;DHT22;20372;47.080;15.410;2022-12-20T05:09:58;-0.40;99.90
34095;DHT22;20372;47.080;15.410;2022-12-20T05:12:23;-0.50;99.90
34095;DHT22;20372;47.080;15.410;2022-12-20T05:14:49;-0.40;99.90
34095;DHT22;20372;47.080;15.410;2022-12-20T05:17:15;-0.40;99.90
34095;DHT22;20372;47.080;15.410;2022-12-20T05:19:40;-0.40;99.90
34095;DHT22;20372;47.080;15.410;2022-12-20T05:22:06;-0.40;99.90
34095;DHT22;20372;47.080;15.410;2022-12-20T05:24:50;-0.50;99.90
34095;DHT22;20372;47.080;15.410;2022-12-20T05:27:34;-0.40;99.90
34095;DHT22;20372;47.080;15.410;2022-12-20T05:30:00;-0.40;99.90
34095;DHT22;20372;47.080;15.410;2022-12-20T05:32:25;-0.30;99.90
34095;DHT22;20372;47.080;15.410;2022-12-20T05:34:51;-0.40;99.90
34095;DHT22;20372;47.080;15.410;2022-12-20T05:37:16;-0.50;99.90
34095;DHT22;20372;47.080;15.410;2022-12-20T05:39:42;-0.30;99.90
34095;DHT22;20372;47.080;15.410;2022-12-20T05:42:07;-0.40;99.90
34095;DHT22;20372;47.080;15.410;2022-12-20T05:44:33;-0.40;99.90
34095;DHT22;20372;47.080;15.410;2022-12-20T05:46:59;-0.30;99.90
34095;DHT22;20372;47.080;15.410;2022-12-20T05:49:24;-0.50;99.90
34095;DHT22;20372;47.080;15.410;2022-12-20T05:51:50;-0.50;99.90
34095;DHT22;20372;47.080;15.410;2022-12-20T05:54:15;-0.40;99.90
34095;DHT22;20372;47.080;15.410;2022-12-20T05:56:41;-0.70;99.90
34095;DHT22;20372;47.080;15.410;2022-12-20T05:59:06;-1.00;99.90
34095;DHT22;20372;47.080;15.410;2022-12-20T06:01:33;-0.90;99.90
34095;DHT22;20372;47.080;15.410;2022-12-20T06:03:59;-0.50;99.90
34095;DHT22;20372;47.080;15.410;2022-12-20T06:06:24;-0.60;99.90
34095;DHT22;20372;47.080;15.410;2022-12-20T06:08:50;-0.60;99.90
34095;DHT22;20372;47.080;15.410;2022-12-20T06:11:16;-0.60;99.90
34095;DHT22;20372;47.080;15.410;2022-12-20T06:13:41;-0.50;99.90
34095;DHT22;20372;47.080;15.410;2022-12-20T06:16:07;-0.60;99.90
34095;DHT22;20372;47.080;15.410;2022-12-20T06:18:32;-0.70;99.90
34095;DHT22;20372;47.080;15.410;2022-12-20T06:20:58;-0.70;99.90
34095;DHT22;20372;47.080;15.410;2022-12-20T06:23:23;-0.50;99.90
34095;DHT22;20372;47.080;15.410;2022-12-20T06:25:49;-0.50;99.90
34095;DHT22;20372;47.080;15.410;2022-12-20T06:28:14;-0.50;99.90
34095;DHT22;20372;47.080;15.410;2022-12-20T06:30:52;-0.40;99.90
34095;DHT22;20372;47.080;15.410;2022-12-20T06:33:18;-0.40;99.90
34095;DHT22;20372;47.080;15.410;2022-12-20T06:35:44;-0.40;99.90
34095;DHT22;20372;47.080;15.410;2022-12-20T06:38:09;-0.60;99.90
34095;DHT22;20372;47.080;15.410;2022-12-20T06:40:35;-0.50;99.90
34095;DHT22;20372;47.080;15.410;2022-12-20T06:43:00;-0.40;99.90
34095;DHT22;20372;47.080;15.410;2022-12-20T06:45:26;-0.30;99.90
34095;DHT22;20372;47.080;15.410;2022-12-20T06:47:51;-0.20;99.90
34095;DHT22;20372;47.080;15.410;2022-12-20T06:50:17;-0.10;99.90
34095;DHT22;20372;47.080;15.410;2022-12-20T06:52:42;-0.10;99.90
34095;DHT22;20372;47.080;15.410;2022-12-20T06:55:08;-0.20;99.90
34095;DHT22;20372;47.080;15.410;2022-12-20T06:57:34;-0.20;99.90
34095;DHT22;20372;47.080;15.410;2022-12-20T06:59:59;-0.30;99.90
34095;DHT22;20372;47.080;15.410;2022-12-20T07:02:25;-0.30;99.90
34095;DHT22;20372;47.080;15.410;2022-12-20T07:04:50;-0.50;99.90
34095;DHT22;20372;47.080;15.410;2022-12-20T07:07:16;-0.50;99.90
34095;DHT22;20372;47.080;15.410;2022-12-20T07:09:42;-0.60;99.90
34095;DHT22;20372;47.080;15.410;2022-12-20T07:12:07;-0.50;99.90
34095;DHT22;20372;47.080;15.410;2022-12-20T07:14:33;-0.40;99.90
34095;DHT22;20372;47.080;15.410;2022-12-20T07:16:59;-0.30;99.90
34095;DHT22;20372;47.080;15.410;2022-12-20T07:19:25;-0.20;99.90
34095;DHT22;20372;47.080;15.410;2022-12-20T07:21:50;-0.20;99.90
34095;DHT22;20372;47.080;15.410;2022-12-20T07:24:16;-0.30;99.90
34095;DHT22;20372;47.080;15.410;2022-12-20T07:26:44;-0.40;99.90
34095;DHT22;20372;47.080;15.410;2022-12-20T07:29:10;-0.60;99.90
34095;DHT22;20372;47.080;15.410;2022-12-20T07:31:36;-0.80;99.90
34095;DHT22;20372;47.080;15.410;2022-12-20T07:34:02;-0.60;99.90
34095;DHT22;20372;47.080;15.410;2022-12-20T07:36:27;-0.90;99.90
34095;DHT22;20372;47.080;15.410;2022-12-20T07:38:53;-1.00;99.90
34095;DHT22;20372;47.080;15.410;2022-12-20T07:41:18;-0.80;99.90
34095;DHT22;20372;47.080;15.410;2022-12-20T07:43:44;-0.70;99.90
34095;DHT22;20372;47.080;15.410;2022-12-20T07:46:11;0.10;99.90
34095;DHT22;20372;47.080;15.410;2022-12-20T07:48:37;-0.40;99.90
34095;DHT22;20372;47.080;15.410;2022-12-20T07:51:05;-0.60;99.90
34095;DHT22;20372;47.080;15.410;2022-12-20T07:53:31;-0.70;99.90
34095;DHT22;20372;47.080;15.410;2022-12-20T07:55:59;-0.70;99.90
34095;DHT22;20372;47.080;15.410;2022-12-20T07:58:25;-0.60;99.90
34095;DHT22;20372;47.080;15.410;2022-12-20T08:00:51;-0.50;99.90
34095;DHT22;20372;47.080;15.410;2022-12-20T08:03:21;-0.30;99.90
34095;DHT22;20372;47.080;15.410;2022-12-20T08:05:49;-0.10;99.90
34095;DHT22;20372;47.080;15.410;2022-12-20T08:08:15;-0.10;99.90
34095;DHT22;20372;47.080;15.410;2022-12-20T08:10:41;0.30;99.90
34095;DHT22;20372;47.080;15.410;2022-12-20T08:13:08;0.00;99.90
34095;DHT22;20372;47.080;15.410;2022-12-20T08:15:34;0.00;99.90
34095;DHT22;20372;47.080;15.410;2022-12-20T08:18:00;0.00;99.90
34095;DHT22;20372;47.080;15.410;2022-12-20T08:20:26;0.10;99.90
34095;DHT22;20372;47.080;15.410;2022-12-20T08:22:51;-0.20;99.90
34095;DHT22;20372;47.080;15.410;2022-12-20T08:25:17;-0.40;99.90
34095;DHT22;20372;47.080;15.410;2022-12-20T08:27:42;-0.50;99.90
34095;DHT22;20372;47.080;15.410;2022-12-20T08:30:09;-0.40;99.90
34095;DHT22;20372;47.080;15.410;2022-12-20T08:32:35;-0.40;99.90
34095;DHT22;20372;47.080;15.410;2022-12-20T08:35:01;-0.20;99.90
34095;DHT22;20372;47.080;15.410;2022-12-20T08:37:26;-0.10;99.90
34095;DHT22;20372;47.080;15.410;2022-12-20T08:39:52;0.00;99.90
34095;DHT22;20372;47.080;15.410;2022-12-20T08:42:17;-0.20;99.90
34095;DHT22;20372;47.080;15.410;2022-12-20T08:44:43;-0.50;99.90
34095;DHT22;20372;47.080;15.410;2022-12-20T08:47:09;-0.60;99.90
34095;DHT22;20372;47.080;15.410;2022-12-20T08:49:35;-0.20;99.90
34095;DHT22;20372;47.080;15.410;2022-12-20T08:52:01;-0.10;99.90
34095;DHT22;20372;47.080;15.410;2022-12-20T08:54:27;-0.20;99.90
34095;DHT22;20372;47.080;15.410;2022-12-20T08:56:52;-0.30;99.90
34095;DHT22;20372;47.080;15.410;2022-12-20T08:59:18;-0.40;99.90
34095;DHT22;20372;47.080;15.410;2022-12-20T09:01:43;-0.30;99.90
34095;DHT22;20372;47.080;15.410;2022-12-20T09:04:09;-0.10;99.90
34095;DHT22;20372;47.080;15.410;2022-12-20T09:06:35;0.00;99.90
34095;DHT22;20372;47.080;15.410;2022-12-20T09:09:01;0.00;99.90
34095;DHT22;20372;47.080;15.410;2022-12-20T09:11:27;0.00;99.90
34095;DHT22;20372;47.080;15.410;2022-12-20T09:13:57;0.00;99.90
34095;DHT22;20372;47.080;15.410;2022-12-20T09:16:24;0.00;99.90
34095;DHT22;20372;47.080;15.410;2022-12-20T09:18:50;0.00;99.90
34095;DHT22;20372;47.080;15.410;2022-12-20T09:21:16;0.00;99.90
34095;DHT22;20372;47.080;15.410;2022-12-20T09:23:43;0.00;99.90
34095;DHT22;20372;47.080;15.410;2022-12-20T09:26:12;-0.10;99.90
34095;DHT22;20372;47.080;15.410;2022-12-20T09:28:38;-0.50;99.90
34095;DHT22;20372;47.080;15.410;2022-12-20T09:31:05;-0.50;99.90
34095;DHT22;20372;47.080;15.410;2022-12-20T09:33:32;-0.20;99.90
34095;DHT22;20372;47.080;15.410;2022-12-20T09:35:58;-0.30;99.90
34095;DHT22;20372;47.080;15.410;2022-12-20T09:38:24;-0.50;99.90
34095;DHT22;20372;47.080;15.410;2022-12-20T09:40:50;-0.50;99.90
34095;DHT22;20372;47.080;15.410;2022-12-20T09:43:17;-0.20;99.90
34095;DHT22;20372;47.080;15.410;2022-12-20T09:45:43;-0.10;99.90
34095;DHT22;20372;47.080;15.410;2022-12-20T09:48:22;0.00;99.90
34095;DHT22;20372;47.080;15.410;2022-12-20T09:56:11;0.10;99.90
34095;DHT22;20372;47.080;15.410;2022-12-20T10:01:13;-0.40;99.90
34095;DHT22;20372;47.080;15.410;2022-12-20T10:03:39;-0.20;99.90
34095;DHT22;20372;47.080;15.410;2022-12-20T10:13:43;-0.30;99.90
34095;DHT22;20372;47.080;15.410;2022-12-20T10:24:17;0.10;99.90
34095;DHT22;20372;47.080;15.410;2022-12-20T10:26:43;0.00;99.90
34095;DHT22;20372;47.080;15.410;2022-12-20T10:29:08;0.00;99.90
34095;DHT22;20372;47.080;15.410;2022-12-20T10:31:34;0.00;99.90
34095;DHT22;20372;47.080;15.410;2022-12-20T10:34:00;0.10;99.90
34095;DHT22;20372;47.080;15.410;2022-12-20T10:36:30;0.10;99.90
34095;DHT22;20372;47.080;15.410;2022-12-20T10:38:57;0.10;99.90
34095;DHT22;20372;47.080;15.410;2022-12-20T10:41:24;0.10;99.90
34095;DHT22;20372;47.080;15.410;2022-12-20T10:44:35;0.10;99.90
34095;DHT22;20372;47.080;15.410;2022-12-20T10:46:42;0.20;99.90
34095;DHT22;20372;47.080;15.410;2022-12-20T10:51:54;0.10;99.90
34095;DHT22;20372;47.080;15.410;2022-12-20T10:54:24;0.20;99.90
34095;DHT22;20372;47.080;15.410;2022-12-20T10:56:54;0.00;99.90
34095;DHT22;20372;47.080;15.410;2022-12-20T11:01:46;0.20;99.90
34095;DHT22;20372;47.080;15.410;2022-12-20T11:04:34;0.10;99.90
34095;DHT22;20372;47.080;15.410;2022-12-20T11:07:00;0.20;99.90
34095;DHT22;20372;47.080;15.410;2022-12-20T11:09:27;0.30;99.90
34095;DHT22;20372;47.080;15.410;2022-12-20T11:14:25;0.40;99.90
34095;DHT22;20372;47.080;15.410;2022-12-20T11:16:52;0.10;99.90
34095;DHT22;20372;47.080;15.410;2022-12-20T11:29:31;0.10;99.90
34095;DHT22;20372;47.080;15.410;2022-12-20T11:37:18;0.20;99.90
34095;DHT22;20372;47.080;15.410;2022-12-20T11:42:12;0.50;99.90
34095;DHT22;20372;47.080;15.410;2022-12-20T11:54:46;0.50;99.90
34095;DHT22;20372;47.080;15.410;2022-12-20T11:57:19;0.50;99.90
34095;DHT22;20372;47.080;15.410;2022-12-20T11:59:53;0.40;99.90
34095;DHT22;20372;47.080;15.410;2022-12-20T12:04:58;0.30;99.90
34095;DHT22;20372;47.080;15.410;2022-12-20T12:07:29;0.10;99.90
34095;DHT22;20372;47.080;15.410;2022-12-20T12:12:25;0.10;99.90
34095;DHT22;20372;47.080;15.410;2022-12-20T12:22:46;0.10;99.90
34095;DHT22;20372;47.080;15.410;2022-12-20T12:25:14;0.30;99.90
34095;DHT22;20372;47.080;15.410;2022-12-20T12:27:42;0.40;99.90
34095;DHT22;20372;47.080;15.410;2022-12-20T12:30:11;0.30;99.90
34095;DHT22;20372;47.080;15.410;2022-12-20T12:32:42;0.30;99.90
34095;DHT22;20372;47.080;15.410;2022-12-20T12:45:43;0.10;99.90
34095;DHT22;20372;47.080;15.410;2022-12-20T12:47:51;-0.30;99.90
34095;DHT22;20372;47.080;15.410;2022-12-20T12:52:53;0.00;99.90
34095;DHT22;20372;47.080;15.410;2022-12-20T12:55:35;0.00;99.90
34095;DHT22;20372;47.080;15.410;2022-12-20T13:00:50;-0.30;99.90
34095;DHT22;20372;47.080;15.410;2022-12-20T13:03:33;-0.40;99.90
34095;DHT22;20372;47.080;15.410;2022-12-20T13:08:48;-0.30;99.90
34095;DHT22;20372;47.080;15.410;2022-12-20T13:11:27;-0.10;99.90
34095;DHT22;20372;47.080;15.410;2022-12-20T13:16:37;0.00;99.90
34095;DHT22;20372;47.080;15.410;2022-12-20T13:19:12;0.00;99.90
34095;DHT22;20372;47.080;15.410;2022-12-20T13:21:40;0.00;99.90
34095;DHT22;20372;47.080;15.410;2022-12-20T13:26:52;0.00;99.90
34095;DHT22;20372;47.080;15.410;2022-12-20T13:29:23;-0.10;99.90
34095;DHT22;20372;47.080;15.410;2022-12-20T13:31:49;0.00;99.90
34095;DHT22;20372;47.080;15.410;2022-12-20T13:36:59;0.00;99.90
34095;DHT22;20372;47.080;15.410;2022-12-20T13:39:28;-0.10;99.90
34095;DHT22;20372;47.080;15.410;2022-12-20T13:42:06;-0.50;99.90
34095;DHT22;20372;47.080;15.410;2022-12-20T13:44:42;-0.70;99.90
34095;DHT22;20372;47.080;15.410;2022-12-20T13:49:41;-0.60;99.90
34095;DHT22;20372;47.080;15.410;2022-12-20T13:54:43;-0.60;99.90
34095;DHT22;20372;47.080;15.410;2022-12-20T13:57:13;-0.60;99.90
34095;DHT22;20372;47.080;15.410;2022-12-20T13:59:42;-0.60;99.90
34095;DHT22;20372;47.080;15.410;2022-12-20T14:02:11;-0.50;99.90
34095;DHT22;20372;47.080;15.410;2022-12-20T14:04:42;-0.40;99.90
34095;DHT22;20372;47.080;15.410;2022-12-20T14:07:11;-0.40;99.90
34095;DHT22;20372;47.080;15.410;2022-12-20T14:09:38;-0.60;99.90
34095;DHT22;20372;47.080;15.410;2022-12-20T14:14:30;-0.70;99.90
34095;DHT22;20372;47.080;15.410;2022-12-20T14:16:55;-0.50;99.90
34095;DHT22;20372;47.080;15.410;2022-12-20T14:19:38;-0.40;99.90
34095;DHT22;20372;47.080;15.410;2022-12-20T14:22:03;-0.30;99.90
34095;DHT22;20372;47.080;15.410;2022-12-20T14:24:29;-0.10;99.90
34095;DHT22;20372;47.080;15.410;2022-12-20T14:26:55;-0.20;99.90
34095;DHT22;20372;47.080;15.410;2022-12-20T14:29:26;-0.30;99.90
34095;DHT22;20372;47.080;15.410;2022-12-20T14:31:53;-0.30;99.90
34095;DHT22;20372;47.080;15.410;2022-12-20T14:34:23;-0.40;99.90
34095;DHT22;20372;47.080;15.410;2022-12-20T14:36:49;-0.20;99.90
34095;DHT22;20372;47.080;15.410;2022-12-20T14:39:28;-0.30;99.90
34095;DHT22;20372;47.080;15.410;2022-12-20T14:41:55;-0.10;99.90
34095;DHT22;20372;47.080;15.410;2022-12-20T14:44:21;-0.20;99.90
34095;DHT22;20372;47.080;15.410;2022-12-20T14:46:48;-0.40;99.90
34095;DHT22;20372;47.080;15.410;2022-12-20T14:49:24;-0.60;99.90
34095;DHT22;20372;47.080;15.410;2022-12-20T14:51:50;-0.60;99.90
34095;DHT22;20372;47.080;15.410;2022-12-20T14:54:20;-0.60;99.90
34095;DHT22;20372;47.080;15.410;2022-12-20T14:56:47;-0.50;99.90
34095;DHT22;20372;47.080;15.410;2022-12-20T14:59:36;-0.40;99.90
34095;DHT22;20372;47.080;15.410;2022-12-20T15:02:20;-0.40;99.90
34095;DHT22;20372;47.080;15.410;2022-12-20T15:04:46;-0.50;99.90
34095;DHT22;20372;47.080;15.410;2022-12-20T15:07:30;-0.20;99.90
34095;DHT22;20372;47.080;15.410;2022-12-20T15:09:56;-0.20;99.90
34095;DHT22;20372;47.080;15.410;2022-12-20T15:12:23;-0.20;99.90
34095;DHT22;20372;47.080;15.410;2022-12-20T15:14:49;-0.20;99.90
34095;DHT22;20372;47.080;15.410;2022-12-20T15:17:14;-0.20;99.90
34095;DHT22;20372;47.080;15.410;2022-12-20T15:19:40;-0.10;99.90
34095;DHT22;20372;47.080;15.410;2022-12-20T15:22:08;-0.10;99.90
34095;DHT22;20372;47.080;15.410;2022-12-20T15:24:37;-0.10;99.90
34095;DHT22;20372;47.080;15.410;2022-12-20T15:27:03;-0.10;99.90
34095;DHT22;20372;47.080;15.410;2022-12-20T15:29:30;-0.20;99.90
34095;DHT22;20372;47.080;15.410;2022-12-20T15:32:03;-0.20;99.90
34095;DHT22;20372;47.080;15.410;2022-12-20T15:34:31;-0.20;99.90
34095;DHT22;20372;47.080;15.410;2022-12-20T15:36:57;-0.20;99.90
34095;DHT22;20372;47.080;15.410;2022-12-20T15:39:24;-0.20;99.90
34095;DHT22;20372;47.080;15.410;2022-12-20T15:41:50;-0.20;99.90
34095;DHT22;20372;47.080;15.410;2022-12-20T15:44:18;-0.10;99.90
34095;DHT22;20372;47.080;15.410;2022-12-20T15:46:44;0.00;99.90
34095;DHT22;20372;47.080;15.410;2022-12-20T15:49:12;-0.20;99.90
34095;DHT22;20372;47.080;15.410;2022-12-20T15:51:38;-0.30;99.90
34095;DHT22;20372;47.080;15.410;2022-12-20T15:54:06;-0.10;99.90
34095;DHT22;20372;47.080;15.410;2022-12-20T15:56:34;-0.20;99.90
34095;DHT22;20372;47.080;15.410;2022-12-20T15:59:00;-0.20;99.90
34095;DHT22;20372;47.080;15.410;2022-12-20T16:01:26;-0.30;99.90
34095;DHT22;20372;47.080;15.410;2022-12-20T16:03:52;-0.20;99.90
34095;DHT22;20372;47.080;15.410;2022-12-20T16:06:18;-0.40;99.90
34095;DHT22;20372;47.080;15.410;2022-12-20T16:08:43;-0.40;99.90
34095;DHT22;20372;47.080;15.410;2022-12-20T16:11:19;-0.30;99.90
34095;DHT22;20372;47.080;15.410;2022-12-20T16:13:45;-0.30;99.90
34095;DHT22;20372;47.080;15.410;2022-12-20T16:16:16;-0.10;99.90
34095;DHT22;20372;47.080;15.410;2022-12-20T16:18:42;-0.10;99.90
34095;DHT22;20372;47.080;15.410;2022-12-20T16:21:14;0.00;99.90
34095;DHT22;20372;47.080;15.410;2022-12-20T16:23:41;0.00;99.90
34095;DHT22;20372;47.080;15.410;2022-12-20T16:26:10;-0.10;99.90
34095;DHT22;20372;47.080;15.410;2022-12-20T16:28:36;-0.20;99.90
34095;DHT22;20372;47.080;15.410;2022-12-20T16:31:08;-0.50;99.90
34095;DHT22;20372;47.080;15.410;2022-12-20T16:33:33;-0.40;99.90
34095;DHT22;20372;47.080;15.410;2022-12-20T16:35:59;-0.20;99.90
34095;DHT22;20372;47.080;15.410;2022-12-20T16:38:24;-0.10;99.90
34095;DHT22;20372;47.080;15.410;2022-12-20T16:40:50;-0.10;99.90
34095;DHT22;20372;47.080;15.410;2022-12-20T16:43:15;-0.30;99.90
34095;DHT22;20372;47.080;15.410;2022-12-20T16:45:42;-0.20;99.90
34095;DHT22;20372;47.080;15.410;2022-12-20T16:48:08;-0.30;99.90
34095;DHT22;20372;47.080;15.410;2022-12-20T16:50:33;-0.40;99.90
34095;DHT22;20372;47.080;15.410;2022-12-20T16:53:05;-0.40;99.90
34095;DHT22;20372;47.080;15.410;2022-12-20T16:55:31;-0.40;99.90
34095;DHT22;20372;47.080;15.410;2022-12-20T16:57:57;-0.40;99.90
34095;DHT22;20372;47.080;15.410;2022-12-20T17:00:24;-0.40;99.90
34095;DHT22;20372;47.080;15.410;2022-12-20T17:02:51;-0.20;99.90
34095;DHT22;20372;47.080;15.410;2022-12-20T17:05:19;-0.30;99.90
34095;DHT22;20372;47.080;15.410;2022-12-20T17:07:45;-0.30;99.90
34095;DHT22;20372;47.080;15.410;2022-12-20T17:10:10;-0.30;99.90
34095;DHT22;20372;47.080;15.410;2022-12-20T17:12:36;-0.20;99.90
34095;DHT22;20372;47.080;15.410;2022-12-20T17:15:01;-0.20;99.90
34095;DHT22;20372;47.080;15.410;2022-12-20T17:17:29;-0.10;99.90